sensor_id;sensor_type;location;lat;lon;timestamp;temperature;humidity
33328;DHT22;19692;52.998;9.116;2023-03-21T00:01:11;7.50;99.90
33328;DHT22;19692;52.998;9.116;2023-03-21T00:03:38;7.60;99.90
33328;DHT22;19692;52.998;9.116;2023-03-21T00:06:05;7.50;99.90
33328;DHT22;19692;52.998;9.116;2023-03-21T00:08:32;7.50;99.90
33328;DHT22;19692;52.998;9.116;2023-03-21T00:11:00;7.50;99.90
33328;DHT22;19692;52.998;9.116;2023-03-21T00:13:28;7.60;99.90
33328;DHT22;19692;52.998;9.116;2023-03-21T00:16:04;7.60;99.90
33328;DHT22;19692;52.998;9.116;2023-03-21T00:18:31;7.60;99.90
33328;DHT22;19692;52.998;9.116;2023-03-21T00:20:58;7.60;99.90
33328;DHT22;19692;52.998;9.116;2023-03-21T00:23:25;7.60;99.90
33328;DHT22;19692;52.998;9.116;2023-03-21T00:25:52;7.60;99.90
33328;DHT22;19692;52.998;9.116;2023-03-21T00:28:18;7.70;99.90
33328;DHT22;19692;52.998;9.116;2023-03-21T00:30:44;7.70;99.90
33328;DHT22;19692;52.998;9.116;2023-03-21T00:33:10;7.70;99.90
33328;DHT22;19692;52.998;9.116;2023-03-21T00:35:37;7.70;99.90
33328;DHT22;19692;52.998;9.116;2023-03-21T00:38:03;7.70;99.90
33328;DHT22;19692;52.998;9.116;2023-03-21T00:40:29;7.70;99.90
33328;DHT22;19692;52.998;9.116;2023-03-21T00:42:55;7.70;99.90
33328;DHT22;19692;52.998;9.116;2023-03-21T00:45:21;7.70;99.90
33328;DHT22;19692;52.998;9.116;2023-03-21T00:47:47;7.70;99.90
33328;DHT22;19692;52.998;9.116;2023-03-21T00:50:12;7.80;99.90
33328;DHT22;19692;52.998;9.116;2023-03-21T00:52:38;7.70;99.90
33328;DHT22;19692;52.998;9.116;2023-03-21T00:55:05;7.70;99.90
33328;DHT22;19692;52.998;9.116;2023-03-21T00:57:31;7.80;99.90
33328;DHT22;19692;52.998;9.116;2023-03-21T00:59:57;7.80;99.90
33328;DHT22;19692;52.998;9.116;2023-03-21T01:02:24;7.70;99.90
33328;DHT22;19692;52.998;9.116;2023-03-21T01:04:53;7.80;99.90
33328;DHT22;19692;52.998;9.116;2023-03-21T01:07:19;7.80;99.90
33328;DHT22;19692;52.998;9.116;2023-03-21T01:09:45;7.80;99.90
33328;DHT22;19692;52.998;9.116;2023-03-21T01:12:11;7.80;99.90
33328;DHT22;19692;52.998;9.116;2023-03-21T01:14:37;7.80;99.90
33328;DHT22;19692;52.998;9.116;2023-03-21T01:17:04;7.80;99.90
33328;DHT22;19692;52.998;9.116;2023-03-21T01:19:30;7.80;99.90
33328;DHT22;19692;52.998;9.116;2023-03-21T01:21:56;7.80;99.90
33328;DHT22;19692;52.998;9.116;2023-03-21T01:24:22;7.80;99.90
33328;DHT22;19692;52.998;9.116;2023-03-21T01:26:47;7.80;99.90
33328;DHT22;19692;52.998;9.116;2023-03-21T01:29:13;7.80;99.90
33328;DHT22;19692;52.998;9.116;2023-03-21T01:31:39;7.90;99.90
33328;DHT22;19692;52.998;9.116;2023-03-21T01:34:05;7.90;99.90
33328;DHT22;19692;52.998;9.116;2023-03-21T01:36:30;7.90;99.90
33328;DHT22;19692;52.998;9.116;2023-03-21T01:38:57;7.90;99.90
33328;DHT22;19692;52.998;9.116;2023-03-21T01:41:29;7.90;99.90
33328;DHT22;19692;52.998;9.116;2023-03-21T01:43:56;7.90;99.90
33328;DHT22;19692;52.998;9.116;2023-03-21T01:46:41;7.90;99.90
33328;DHT22;19692;52.998;9.116;2023-03-21T01:49:22;8.00;99.90
33328;DHT22;19692;52.998;9.116;2023-03-21T01:51:56;8.00;99.90
33328;DHT22;19692;52.998;9.116;2023-03-21T01:54:31;8.00;99.90
33328;DHT22;19692;52.998;9.116;2023-03-21T01:57:03;7.90;99.90
33328;DHT22;19692;52.998;9.116;2023-03-21T01:59:42;8.00;99.90
33328;DHT22;19692;52.998;9.116;2023-03-21T02:02:22;7.90;99.90
33328;DHT22;19692;52.998;9.116;2023-03-21T02:04:51;7.90;99.90
33328;DHT22;19692;52.998;9.116;2023-03-21T02:07:30;8.00;99.90
33328;DHT22;19692;52.998;9.116;2023-03-21T02:10:02;8.00;99.90
33328;DHT22;19692;52.998;9.116;2023-03-21T02:12:29;7.90;99.90
33328;DHT22;19692;52.998;9.116;2023-03-21T02:14:56;7.90;99.90
33328;DHT22;19692;52.998;9.116;2023-03-21T02:20:17;7.90;99.90
33328;DHT22;19692;52.998;9.116;2023-03-21T02:23:09;7.90;99.90
33328;DHT22;19692;52.998;9.116;2023-03-21T02:26:26;7.90;99.90
33328;DHT22;19692;52.998;9.116;2023-03-21T02:38:11;8.00;99.90
33328;DHT22;19692;52.998;9.116;2023-03-21T02:41:05;7.90;99.90
33328;DHT22;19692;52.998;9.116;2023-03-21T02:46:31;7.90;99.90
33328;DHT22;19692;52.998;9.116;2023-03-21T02:49:25;8.00;99.90
33328;DHT22;19692;52.998;9.116;2023-03-21T02:51:57;8.00;99.90
33328;DHT22;19692;52.998;9.116;2023-03-21T02:54:24;8.00;99.90
33328;DHT22;19692;52.998;9.116;2023-03-21T02:56:51;8.00;99.90
33328;DHT22;19692;52.998;9.116;2023-03-21T02:59:20;8.00;99.90
33328;DHT22;19692;52.998;9.116;2023-03-21T03:01:53;8.00;99.90
33328;DHT22;19692;52.998;9.116;2023-03-21T03:04:24;8.00;99.90
33328;DHT22;19692;52.998;9.116;2023-03-21T03:12:44;7.90;99.90
33328;DHT22;19692;52.998;9.116;2023-03-21T03:15:19;7.90;99.90
33328;DHT22;19692;52.998;9.116;2023-03-21T03:18:10;7.90;99.90
33328;DHT22;19692;52.998;9.116;2023-03-21T03:20:46;8.00;99.90
33328;DHT22;19692;52.998;9.116;2023-03-21T03:23:45;7.90;99.90
33328;DHT22;19692;52.998;9.116;2023-03-21T03:26:34;7.90;99.90
33328;DHT22;19692;52.998;9.116;2023-03-21T03:29:07;8.00;99.90
33328;DHT22;19692;52.998;9.116;2023-03-21T03:31:39;8.00;99.90
33328;DHT22;19692;52.998;9.116;2023-03-21T03:34:12;7.90;99.90
33328;DHT22;19692;52.998;9.116;2023-03-21T03:36:43;8.00;99.90
33328;DHT22;19692;52.998;9.116;2023-03-21T03:39:13;8.00;99.90
33328;DHT22;19692;52.998;9.116;2023-03-21T03:41:45;8.00;99.90
33328;DHT22;19692;52.998;9.116;2023-03-21T03:44:23;8.10;99.90
33328;DHT22;19692;52.998;9.116;2023-03-21T03:49:25;8.00;99.90
33328;DHT22;19692;52.998;9.116;2023-03-21T03:54:31;8.00;99.90
33328;DHT22;19692;52.998;9.116;2023-03-21T03:57:02;8.10;99.90
33328;DHT22;19692;52.998;9.116;2023-03-21T03:59:28;8.00;99.90
33328;DHT22;19692;52.998;9.116;2023-03-21T04:01:54;8.10;99.90
33328;DHT22;19692;52.998;9.116;2023-03-21T04:04:20;8.00;99.90
33328;DHT22;19692;52.998;9.116;2023-03-21T04:06:47;8.00;99.90
33328;DHT22;19692;52.998;9.116;2023-03-21T04:09:17;8.00;99.90
33328;DHT22;19692;52.998;9.116;2023-03-21T04:11:43;8.00;99.90
33328;DHT22;19692;52.998;9.116;2023-03-21T04:14:09;8.00;99.90
33328;DHT22;19692;52.998;9.116;2023-03-21T04:16:34;8.00;99.90
33328;DHT22;19692;52.998;9.116;2023-03-21T04:19:00;8.00;99.90
33328;DHT22;19692;52.998;9.116;2023-03-21T04:21:26;8.00;99.90
33328;DHT22;19692;52.998;9.116;2023-03-21T04:23:53;8.00;99.90
33328;DHT22;19692;52.998;9.116;2023-03-21T04:26:22;7.90;99.90
33328;DHT22;19692;52.998;9.116;2023-03-21T04:28:49;7.90;99.90
33328;DHT22;19692;52.998;9.116;2023-03-21T04:31:15;8.00;99.90
33328;DHT22;19692;52.998;9.116;2023-03-21T04:33:43;8.00;99.90
33328;DHT22;19692;52.998;9.116;2023-03-21T04:36:09;8.00;99.90
33328;DHT22;19692;52.998;9.116;2023-03-21T04:38:42;7.90;99.90
33328;DHT22;19692;52.998;9.116;2023-03-21T04:41:12;8.00;99.90
33328;DHT22;19692;52.998;9.116;2023-03-21T04:43:38;8.00;99.90
33328;DHT22;19692;52.998;9.116;2023-03-21T04:46:04;8.00;99.90
33328;DHT22;19692;52.998;9.116;2023-03-21T04:48:30;8.00;99.90
33328;DHT22;19692;52.998;9.116;2023-03-21T04:50:56;8.00;99.90
33328;DHT22;19692;52.998;9.116;2023-03-21T04:53:22;8.00;99.90
33328;DHT22;19692;52.998;9.116;2023-03-21T04:55:47;8.00;99.90
33328;DHT22;19692;52.998;9.116;2023-03-21T04:58:13;7.90;99.90
33328;DHT22;19692;52.998;9.116;2023-03-21T05:00:39;7.90;99.90
33328;DHT22;19692;52.998;9.116;2023-03-21T05:03:05;7.90;99.90
33328;DHT22;19692;52.998;9.116;2023-03-21T05:05:35;8.00;99.90
33328;DHT22;19692;52.998;9.116;2023-03-21T05:08:01;8.00;99.90
33328;DHT22;19692;52.998;9.116;2023-03-21T05:10:27;8.00;99.90
33328;DHT22;19692;52.998;9.116;2023-03-21T05:12:53;8.00;99.90
33328;DHT22;19692;52.998;9.116;2023-03-21T05:15:19;8.00;99.90
33328;DHT22;19692;52.998;9.116;2023-03-21T05:17:44;8.00;99.90
33328;DHT22;19692;52.998;9.116;2023-03-21T05:20:14;8.00;99.90
33328;DHT22;19692;52.998;9.116;2023-03-21T05:22:42;8.00;99.90
33328;DHT22;19692;52.998;9.116;2023-03-21T05:25:11;8.00;99.90
33328;DHT22;19692;52.998;9.116;2023-03-21T05:27:38;8.10;99.90
33328;DHT22;19692;52.998;9.116;2023-03-21T05:30:10;8.10;99.90
33328;DHT22;19692;52.998;9.116;2023-03-21T05:32:38;8.00;99.90
33328;DHT22;19692;52.998;9.116;2023-03-21T05:35:04;8.00;99.90
33328;DHT22;19692;52.998;9.116;2023-03-21T05:37:30;8.10;99.90
33328;DHT22;19692;52.998;9.116;2023-03-21T05:39:56;8.10;99.90
33328;DHT22;19692;52.998;9.116;2023-03-21T05:42:22;8.10;99.90
33328;DHT22;19692;52.998;9.116;2023-03-21T05:44:48;8.10;99.90
33328;DHT22;19692;52.998;9.116;2023-03-21T05:47:15;8.10;99.90
33328;DHT22;19692;52.998;9.116;2023-03-21T05:49:42;8.10;99.90
33328;DHT22;19692;52.998;9.116;2023-03-21T05:52:08;8.10;99.90
33328;DHT22;19692;52.998;9.116;2023-03-21T05:54:34;8.10;99.90
33328;DHT22;19692;52.998;9.116;2023-03-21T05:57:01;8.10;99.90
33328;DHT22;19692;52.998;9.116;2023-03-21T05:59:27;8.10;99.90
33328;DHT22;19692;52.998;9.116;2023-03-21T06:01:53;8.10;99.90
33328;DHT22;19692;52.998;9.116;2023-03-21T06:04:19;8.10;99.90
33328;DHT22;19692;52.998;9.116;2023-03-21T06:06:45;8.10;99.90
33328;DHT22;19692;52.998;9.116;2023-03-21T06:09:11;8.10;99.90
33328;DHT22;19692;52.998;9.116;2023-03-21T06:11:39;8.10;99.90
33328;DHT22;19692;52.998;9.116;2023-03-21T06:14:10;8.10;99.90
33328;DHT22;19692;52.998;9.116;2023-03-21T06:16:36;8.10;99.90
33328;DHT22;19692;52.998;9.116;2023-03-21T06:19:02;8.10;99.90
33328;DHT22;19692;52.998;9.116;2023-03-21T06:21:27;8.10;99.90
33328;DHT22;19692;52.998;9.116;2023-03-21T06:23:53;8.10;99.90
33328;DHT22;19692;52.998;9.116;2023-03-21T06:26:19;8.10;99.90
33328;DHT22;19692;52.998;9.116;2023-03-21T06:28:50;8.20;99.90
33328;DHT22;19692;52.998;9.116;2023-03-21T06:31:17;8.20;99.90
33328;DHT22;19692;52.998;9.116;2023-03-21T06:33:45;8.30;99.90
33328;DHT22;19692;52.998;9.116;2023-03-21T06:36:10;8.30;99.90
33328;DHT22;19692;52.998;9.116;2023-03-21T06:38:36;8.30;99.90
33328;DHT22;19692;52.998;9.116;2023-03-21T06:41:06;8.30;99.90
33328;DHT22;19692;52.998;9.116;2023-03-21T06:43:33;8.30;99.90
33328;DHT22;19692;52.998;9.116;2023-03-21T06:45:59;8.30;99.90
33328;DHT22;19692;52.998;9.116;2023-03-21T06:48:26;8.40;99.90
33328;DHT22;19692;52.998;9.116;2023-03-21T06:50:52;8.40;99.90
33328;DHT22;19692;52.998;9.116;2023-03-21T06:53:19;8.40;99.90
33328;DHT22;19692;52.998;9.116;2023-03-21T06:55:52;8.50;99.90
33328;DHT22;19692;52.998;9.116;2023-03-21T06:58:18;8.40;99.90
33328;DHT22;19692;52.998;9.116;2023-03-21T07:00:45;8.50;99.90
33328;DHT22;19692;52.998;9.116;2023-03-21T07:03:12;8.50;99.90
33328;DHT22;19692;52.998;9.116;2023-03-21T07:05:38;8.50;99.90
33328;DHT22;19692;52.998;9.116;2023-03-21T07:08:05;8.50;99.90
33328;DHT22;19692;52.998;9.116;2023-03-21T07:10:37;8.50;99.90
33328;DHT22;19692;52.998;9.116;2023-03-21T07:13:05;8.60;99.90
33328;DHT22;19692;52.998;9.116;2023-03-21T07:15:31;8.60;99.90
33328;DHT22;19692;52.998;9.116;2023-03-21T07:17:58;8.60;99.90
33328;DHT22;19692;52.998;9.116;2023-03-21T07:20:24;8.70;99.90
33328;DHT22;19692;52.998;9.116;2023-03-21T07:22:51;8.70;99.90
33328;DHT22;19692;52.998;9.116;2023-03-21T07:25:17;8.70;99.90
33328;DHT22;19692;52.998;9.116;2023-03-21T07:27:44;8.80;99.90
33328;DHT22;19692;52.998;9.116;2023-03-21T07:30:13;8.90;99.90
33328;DHT22;19692;52.998;9.116;2023-03-21T07:32:40;8.80;99.90
33328;DHT22;19692;52.998;9.116;2023-03-21T07:35:07;8.90;99.90
33328;DHT22;19692;52.998;9.116;2023-03-21T07:37:35;8.90;99.90
33328;DHT22;19692;52.998;9.116;2023-03-21T07:40:01;8.90;99.90
33328;DHT22;19692;52.998;9.116;2023-03-21T07:42:35;9.00;99.90
33328;DHT22;19692;52.998;9.116;2023-03-21T07:45:02;9.00;99.90
33328;DHT22;19692;52.998;9.116;2023-03-21T07:47:30;9.00;99.90
33328;DHT22;19692;52.998;9.116;2023-03-21T07:49:56;9.00;99.90
33328;DHT22;19692;52.998;9.116;2023-03-21T07:52:21;9.00;99.90
33328;DHT22;19692;52.998;9.116;2023-03-21T07:54:47;9.00;99.90
33328;DHT22;19692;52.998;9.116;2023-03-21T07:57:13;9.00;99.90
33328;DHT22;19692;52.998;9.116;2023-03-21T07:59:38;9.00;99.90
33328;DHT22;19692;52.998;9.116;2023-03-21T08:02:04;9.00;99.90
33328;DHT22;19692;52.998;9.116;2023-03-21T08:04:31;9.10;99.90
33328;DHT22;19692;52.998;9.116;2023-03-21T08:06:57;9.10;99.90
33328;DHT22;19692;52.998;9.116;2023-03-21T08:09:22;9.10;99.90
33328;DHT22;19692;52.998;9.116;2023-03-21T08:11:48;9.20;99.90
33328;DHT22;19692;52.998;9.116;2023-03-21T08:14:14;9.20;99.90
33328;DHT22;19692;52.998;9.116;2023-03-21T08:16:40;9.20;99.90
33328;DHT22;19692;52.998;9.116;2023-03-21T08:19:05;9.20;99.90
33328;DHT22;19692;52.998;9.116;2023-03-21T08:21:31;9.20;99.90
33328;DHT22;19692;52.998;9.116;2023-03-21T08:23:57;9.20;99.90
33328;DHT22;19692;52.998;9.116;2023-03-21T08:26:23;9.20;99.90
33328;DHT22;19692;52.998;9.116;2023-03-21T08:28:50;9.20;99.90
33328;DHT22;19692;52.998;9.116;2023-03-21T08:31:16;9.20;99.90
33328;DHT22;19692;52.998;9.116;2023-03-21T08:33:42;9.10;99.90
33328;DHT22;19692;52.998;9.116;2023-03-21T08:36:08;9.20;99.90
33328;DHT22;19692;52.998;9.116;2023-03-21T08:38:35;9.20;99.90
33328;DHT22;19692;52.998;9.116;2023-03-21T08:41:01;9.20;99.90
33328;DHT22;19692;52.998;9.116;2023-03-21T08:43:27;9.20;99.90
33328;DHT22;19692;52.998;9.116;2023-03-21T08:45:55;9.20;99.90
33328;DHT22;19692;52.998;9.116;2023-03-21T08:48:21;9.20;99.90
33328;DHT22;19692;52.998;9.116;2023-03-21T08:50:46;9.20;99.90
33328;DHT22;19692;52.998;9.116;2023-03-21T08:53:12;9.10;99.90
33328;DHT22;19692;52.998;9.116;2023-03-21T08:55:38;9.20;99.90
33328;DHT22;19692;52.998;9.116;2023-03-21T08:58:04;9.10;99.90
33328;DHT22;19692;52.998;9.116;2023-03-21T09:00:30;9.20;99.90
33328;DHT22;19692;52.998;9.116;2023-03-21T09:02:57;9.20;99.90
33328;DHT22;19692;52.998;9.116;2023-03-21T09:05:23;9.20;99.90
33328;DHT22;19692;52.998;9.116;2023-03-21T09:07:52;9.20;99.90
33328;DHT22;19692;52.998;9.116;2023-03-21T09:10:21;9.20;99.90
33328;DHT22;19692;52.998;9.116;2023-03-21T09:12:48;9.30;99.90
33328;DHT22;19692;52.998;9.116;2023-03-21T09:15:15;9.30;99.90
33328;DHT22;19692;52.998;9.116;2023-03-21T09:17:42;9.30;99.90
33328;DHT22;19692;52.998;9.116;2023-03-21T09:20:10;9.30;99.90
33328;DHT22;19692;52.998;9.116;2023-03-21T09:22:50;9.30;99.90
33328;DHT22;19692;52.998;9.116;2023-03-21T09:25:18;9.40;99.90
33328;DHT22;19692;52.998;9.116;2023-03-21T09:27:45;9.40;99.90
33328;DHT22;19692;52.998;9.116;2023-03-21T09:30:13;9.40;99.90
33328;DHT22;19692;52.998;9.116;2023-03-21T09:32:41;9.50;99.90
33328;DHT22;19692;52.998;9.116;2023-03-21T09:35:07;9.60;99.90
33328;DHT22;19692;52.998;9.116;2023-03-21T09:37:35;9.60;99.90
33328;DHT22;19692;52.998;9.116;2023-03-21T09:40:17;9.60;99.90
33328;DHT22;19692;52.998;9.116;2023-03-21T09:43:02;9.60;99.90
33328;DHT22;19692;52.998;9.116;2023-03-21T09:48:16;9.50;99.90
33328;DHT22;19692;52.998;9.116;2023-03-21T09:50:50;9.50;99.90
33328;DHT22;19692;52.998;9.116;2023-03-21T09:53:30;9.50;99.90
33328;DHT22;19692;52.998;9.116;2023-03-21T09:55:59;9.50;99.90
33328;DHT22;19692;52.998;9.116;2023-03-21T09:58:33;9.50;99.90
33328;DHT22;19692;52.998;9.116;2023-03-21T10:01:15;9.50;99.90
33328;DHT22;19692;52.998;9.116;2023-03-21T10:03:51;9.40;99.90
33328;DHT22;19692;52.998;9.116;2023-03-21T10:06:19;9.40;99.90
33328;DHT22;19692;52.998;9.116;2023-03-21T10:08:59;9.40;99.90
33328;DHT22;19692;52.998;9.116;2023-03-21T10:11:44;9.50;99.90
33328;DHT22;19692;52.998;9.116;2023-03-21T10:14:22;9.50;99.90
33328;DHT22;19692;52.998;9.116;2023-03-21T10:16:56;9.50;99.90
33328;DHT22;19692;52.998;9.116;2023-03-21T10:19:27;9.50;99.90
33328;DHT22;19692;52.998;9.116;2023-03-21T10:21:53;9.50;99.90
33328;DHT22;19692;52.998;9.116;2023-03-21T10:24:24;9.60;99.90
33328;DHT22;19692;52.998;9.116;2023-03-21T10:26:52;9.60;99.90
33328;DHT22;19692;52.998;9.116;2023-03-21T10:29:20;9.60;99.90
33328;DHT22;19692;52.998;9.116;2023-03-21T10:31:49;9.60;99.90
33328;DHT22;19692;52.998;9.116;2023-03-21T10:34:31;9.60;99.90
33328;DHT22;19692;52.998;9.116;2023-03-21T10:39:45;9.70;99.90
33328;DHT22;19692;52.998;9.116;2023-03-21T10:42:21;9.70;99.90
33328;DHT22;19692;52.998;9.116;2023-03-21T10:44:53;9.80;99.90
33328;DHT22;19692;52.998;9.116;2023-03-21T10:50:10;9.80;99.90
33328;DHT22;19692;52.998;9.116;2023-03-21T10:52:48;9.90;99.90
33328;DHT22;19692;52.998;9.116;2023-03-21T10:55:22;9.90;99.90
33328;DHT22;19692;52.998;9.116;2023-03-21T10:58:16;9.90;99.90
33328;DHT22;19692;52.998;9.116;2023-03-21T11:00:44;9.90;99.90
33328;DHT22;19692;52.998;9.116;2023-03-21T11:03:21;9.90;99.90
33328;DHT22;19692;52.998;9.116;2023-03-21T11:05:54;9.90;99.90
33328;DHT22;19692;52.998;9.116;2023-03-21T11:08:21;9.80;99.90
33328;DHT22;19692;52.998;9.116;2023-03-21T11:10:54;9.80;99.90
33328;DHT22;19692;52.998;9.116;2023-03-21T11:13:43;9.90;99.90
33328;DHT22;19692;52.998;9.116;2023-03-21T11:16:10;9.90;99.90
33328;DHT22;19692;52.998;9.116;2023-03-21T11:18:42;9.90;99.90
33328;DHT22;19692;52.998;9.116;2023-03-21T11:21:11;9.90;99.90
33328;DHT22;19692;52.998;9.116;2023-03-21T11:23:41;9.90;99.90
33328;DHT22;19692;52.998;9.116;2023-03-21T11:26:17;9.90;99.90
33328;DHT22;19692;52.998;9.116;2023-03-21T11:28:48;9.90;99.90
33328;DHT22;19692;52.998;9.116;2023-03-21T11:31:16;9.90;99.90
33328;DHT22;19692;52.998;9.116;2023-03-21T11:33:54;9.90;99.90
33328;DHT22;19692;52.998;9.116;2023-03-21T11:38:49;10.00;99.90
33328;DHT22;19692;52.998;9.116;2023-03-21T11:41:24;10.10;99.90
33328;DHT22;19692;52.998;9.116;2023-03-21T11:43:53;10.10;99.90
33328;DHT22;19692;52.998;9.116;2023-03-21T11:46:28;10.10;99.90
33328;DHT22;19692;52.998;9.116;2023-03-21T11:48:56;10.20;99.90
33328;DHT22;19692;52.998;9.116;2023-03-21T11:51:35;10.20;99.90
33328;DHT22;19692;52.998;9.116;2023-03-21T11:54:15;10.10;99.90
33328;DHT22;19692;52.998;9.116;2023-03-21T11:56:46;10.20;99.90
33328;DHT22;19692;52.998;9.116;2023-03-21T12:05:29;10.20;99.90
33328;DHT22;19692;52.998;9.116;2023-03-21T12:08:17;10.30;99.90
33328;DHT22;19692;52.998;9.116;2023-03-21T12:22:53;10.10;99.90
33328;DHT22;19692;52.998;9.116;2023-03-21T12:25:30;10.10;99.90
33328;DHT22;19692;52.998;9.116;2023-03-21T12:37:10;10.20;99.90
33328;DHT22;19692;52.998;9.116;2023-03-21T12:39:49;10.20;99.90
33328;DHT22;19692;52.998;9.116;2023-03-21T12:45:10;10.20;99.90
33328;DHT22;19692;52.998;9.116;2023-03-21T12:47:42;10.20;99.90
33328;DHT22;19692;52.998;9.116;2023-03-21T12:50:26;10.10;99.90
33328;DHT22;19692;52.998;9.116;2023-03-21T12:53:04;10.10;99.90
33328;DHT22;19692;52.998;9.116;2023-03-21T12:55:53;10.10;99.90
33328;DHT22;19692;52.998;9.116;2023-03-21T12:58:23;10.10;99.90
33328;DHT22;19692;52.998;9.116;2023-03-21T13:00:53;10.10;99.90
33328;DHT22;19692;52.998;9.116;2023-03-21T13:03:24;10.10;99.90
33328;DHT22;19692;52.998;9.116;2023-03-21T13:06:01;10.10;99.90
33328;DHT22;19692;52.998;9.116;2023-03-21T13:08:36;10.00;99.90
33328;DHT22;19692;52.998;9.116;2023-03-21T13:11:05;10.00;99.90
33328;DHT22;19692;52.998;9.116;2023-03-21T13:13:52;10.10;99.90
33328;DHT22;19692;52.998;9.116;2023-03-21T13:16:46;10.10;99.90
33328;DHT22;19692;52.998;9.116;2023-03-21T13:19:40;10.10;99.90
33328;DHT22;19692;52.998;9.116;2023-03-21T13:22:18;10.00;99.90
33328;DHT22;19692;52.998;9.116;2023-03-21T13:30:16;10.00;99.90
33328;DHT22;19692;52.998;9.116;2023-03-21T13:32:45;10.00;99.90
33328;DHT22;19692;52.998;9.116;2023-03-21T13:35:32;10.00;99.90
33328;DHT22;19692;52.998;9.116;2023-03-21T13:38:05;9.90;99.90
33328;DHT22;19692;52.998;9.116;2023-03-21T13:41:06;9.80;99.90
33328;DHT22;19692;52.998;9.116;2023-03-21T13:43:41;9.80;99.90
33328;DHT22;19692;52.998;9.116;2023-03-21T13:46:33;9.80;99.90
33328;DHT22;19692;52.998;9.116;2023-03-21T13:51:52;9.80;99.90
33328;DHT22;19692;52.998;9.116;2023-03-21T13:54:44;9.80;99.90
33328;DHT22;19692;52.998;9.116;2023-03-21T13:57:36;9.90;99.90
33328;DHT22;19692;52.998;9.116;2023-03-21T14:00:30;9.90;99.90
33328;DHT22;19692;52.998;9.116;2023-03-21T14:03:07;9.90;99.90
33328;DHT22;19692;52.998;9.116;2023-03-21T14:05:35;10.00;99.90
33328;DHT22;19692;52.998;9.116;2023-03-21T14:08:04;10.00;99.90
33328;DHT22;19692;52.998;9.116;2023-03-21T14:10:38;10.10;99.90
33328;DHT22;19692;52.998;9.116;2023-03-21T14:13:08;10.20;99.90
33328;DHT22;19692;52.998;9.116;2023-03-21T14:15:45;10.20;99.90
33328;DHT22;19692;52.998;9.116;2023-03-21T14:18:15;10.10;99.90
33328;DHT22;19692;52.998;9.116;2023-03-21T14:20:42;10.10;99.90
33328;DHT22;19692;52.998;9.116;2023-03-21T14:23:13;10.10;99.90
33328;DHT22;19692;52.998;9.116;2023-03-21T14:25:40;10.10;99.90
33328;DHT22;19692;52.998;9.116;2023-03-21T14:28:16;10.10;99.90
33328;DHT22;19692;52.998;9.116;2023-03-21T14:30:44;10.20;99.90
33328;DHT22;19692;52.998;9.116;2023-03-21T14:33:26;10.10;99.90
33328;DHT22;19692;52.998;9.116;2023-03-21T14:36:15;10.20;99.90
33328;DHT22;19692;52.998;9.116;2023-03-21T14:38:42;10.20;99.90
33328;DHT22;19692;52.998;9.116;2023-03-21T14:41:23;10.30;99.90
33328;DHT22;19692;52.998;9.116;2023-03-21T14:44:14;10.30;99.90
33328;DHT22;19692;52.998;9.116;2023-03-21T14:46:50;10.20;99.90
33328;DHT22;19692;52.998;9.116;2023-03-21T14:49:37;10.20;99.90
33328;DHT22;19692;52.998;9.116;2023-03-21T14:52:06;10.20;99.90
33328;DHT22;19692;52.998;9.116;2023-03-21T14:54:35;10.30;99.90
33328;DHT22;19692;52.998;9.116;2023-03-21T14:57:08;10.30;99.90
33328;DHT22;19692;52.998;9.116;2023-03-21T14:59:38;10.30;99.90
33328;DHT22;19692;52.998;9.116;2023-03-21T15:02:19;10.30;99.90
33328;DHT22;19692;52.998;9.116;2023-03-21T15:04:53;10.20;99.90
33328;DHT22;19692;52.998;9.116;2023-03-21T15:07:29;10.30;99.90
33328;DHT22;19692;52.998;9.116;2023-03-21T15:10:03;10.20;99.90
33328;DHT22;19692;52.998;9.116;2023-03-21T15:12:32;10.30;99.90
33328;DHT22;19692;52.998;9.116;2023-03-21T15:14:59;10.30;99.90
33328;DHT22;19692;52.998;9.116;2023-03-21T15:17:26;10.30;99.90
33328;DHT22;19692;52.998;9.116;2023-03-21T15:19:52;10.30;99.90
33328;DHT22;19692;52.998;9.116;2023-03-21T15:22:33;10.30;99.90
33328;DHT22;19692;52.998;9.116;2023-03-21T15:25:06;10.30;99.90
33328;DHT22;19692;52.998;9.116;2023-03-21T15:27:38;10.30;99.90
33328;DHT22;19692;52.998;9.116;2023-03-21T15:30:06;10.30;99.90
33328;DHT22;19692;52.998;9.116;2023-03-21T15:32:34;10.30;99.90
33328;DHT22;19692;52.998;9.116;2023-03-21T15:35:07;10.40;99.90
33328;DHT22;19692;52.998;9.116;2023-03-21T15:37:38;10.40;99.90
33328;DHT22;19692;52.998;9.116;2023-03-21T15:40:23;10.40;99.90
33328;DHT22;19692;52.998;9.116;2023-03-21T15:43:15;10.40;99.90
33328;DHT22;19692;52.998;9.116;2023-03-21T15:45:55;10.40;99.90
33328;DHT22;19692;52.998;9.116;2023-03-21T15:48:33;10.40;99.90
33328;DHT22;19692;52.998;9.116;2023-03-21T15:51:04;10.30;99.90
33328;DHT22;19692;52.998;9.116;2023-03-21T15:53:35;10.30;99.90
33328;DHT22;19692;52.998;9.116;2023-03-21T15:56:04;10.30;99.90
33328;DHT22;19692;52.998;9.116;2023-03-21T15:58:42;10.40;99.90
33328;DHT22;19692;52.998;9.116;2023-03-21T16:01:16;10.40;99.90
33328;DHT22;19692;52.998;9.116;2023-03-21T16:03:46;10.40;99.90
33328;DHT22;19692;52.998;9.116;2023-03-21T16:06:22;10.40;99.90
33328;DHT22;19692;52.998;9.116;2023-03-21T16:11:41;10.40;99.90
33328;DHT22;19692;52.998;9.116;2023-03-21T16:14:09;10.50;99.90
33328;DHT22;19692;52.998;9.116;2023-03-21T16:16:35;10.40;99.90
33328;DHT22;19692;52.998;9.116;2023-03-21T16:19:01;10.40;99.90
33328;DHT22;19692;52.998;9.116;2023-03-21T16:21:30;10.40;99.90
33328;DHT22;19692;52.998;9.116;2023-03-21T16:23:56;10.30;99.90
33328;DHT22;19692;52.998;9.116;2023-03-21T16:26:46;10.30;99.90
33328;DHT22;19692;52.998;9.116;2023-03-21T16:29:16;10.30;99.90
33328;DHT22;19692;52.998;9.116;2023-03-21T16:31:43;10.30;99.90
33328;DHT22;19692;52.998;9.116;2023-03-21T16:34:11;10.30;99.90
33328;DHT22;19692;52.998;9.116;2023-03-21T16:36:39;10.30;99.90
33328;DHT22;19692;52.998;9.116;2023-03-21T16:39:18;10.30;99.90
33328;DHT22;19692;52.998;9.116;2023-03-21T16:41:45;10.20;99.90
33328;DHT22;19692;52.998;9.116;2023-03-21T16:44:11;10.20;99.90
33328;DHT22;19692;52.998;9.116;2023-03-21T16:46:37;10.20;99.90
33328;DHT22;19692;52.998;9.116;2023-03-21T16:49:03;10.20;99.90
33328;DHT22;19692;52.998;9.116;2023-03-21T16:51:32;10.20;99.90
33328;DHT22;19692;52.998;9.116;2023-03-21T16:53:59;10.10;99.90
33328;DHT22;19692;52.998;9.116;2023-03-21T16:56:29;10.10;99.90
33328;DHT22;19692;52.998;9.116;2023-03-21T16:58:57;10.10;99.90
33328;DHT22;19692;52.998;9.116;2023-03-21T17:01:24;10.10;99.90
33328;DHT22;19692;52.998;9.116;2023-03-21T17:03:52;10.10;99.90
33328;DHT22;19692;52.998;9.116;2023-03-21T17:06:20;10.10;99.90
33328;DHT22;19692;52.998;9.116;2023-03-21T17:08:47;10.10;99.90
33328;DHT22;19692;52.998;9.116;2023-03-21T17:11:15;10.10;99.90
33328;DHT22;19692;52.998;9.116;2023-03-21T17:13:51;10.10;99.90
33328;DHT22;19692;52.998;9.116;2023-03-21T17:16:21;10.10;99.90
33328;DHT22;19692;52.998;9.116;2023-03-21T17:18:49;10.10;99.90
33328;DHT22;19692;52.998;9.116;2023-03-21T17:21:21;10.10;99.90
33328;DHT22;19692;52.998;9.116;2023-03-21T17:23:52;10.10;99.90